»·PEaware :: N177CF EAR-KLBF

N177CF :: EAR-KLBF

FLIGHT INFORMATION

Flight Status: Arrived
Operator: Privately registered:
United States
More flights under this callsign
Pilot: Raphael S. (13144)
Aircraft: CESSNA 177 CARDINAL
(C177)
More flights by this aircraft type
Origin: EAR
Destination: KLBF North Platte Regl-Bird
United States
More flights between these airports :: More routes between these airports
Route: +
File this flight plan on PilotEdge
Remarks:
Altitude:
(Current/Filed)
0ft
Speed:
(Current/Filed)
0kts
Departed: 04-Feb-18 11:52 AM
Arrived: 04-Feb-18 12:31 PM
Distance/Time
Traveled:
Not Available
Distance/Time
To Go:
Arrived

Flight Plot

Page will automatically refresh every two minutes.

Flight plan parsing failed; only flown route is shown


Map Options




Map Legend


Flown Route
Filed Route
Departure Airport
Arrival Airport
Navaid (VOR, NDB)
Fix

Horizontal Profiles

Position Reports

Time Latitude Longitude Heading Altitude Ground
Speed
04-Feb-18 11:57 40.687676 -99.297804 288 4501ft 114kts
04-Feb-18 11:58 40.692770 -99.340314 285 4470ft 117kts
04-Feb-18 11:59 40.696254 -99.383538 283 4472ft 118kts
04-Feb-18 12:00 40.698019 -99.426867 279 4482ft 118kts
04-Feb-18 12:01 40.697061 -99.470441 275 4488ft 119kts
04-Feb-18 12:02 40.694286 -99.513529 275 4392ft 115kts
04-Feb-18 12:03 40.695015 -99.555686 284 4426ft 106kts
04-Feb-18 12:04 40.698605 -99.595660 289 4455ft 108kts
04-Feb-18 12:05 40.706453 -99.635045 294 4540ft 110kts
04-Feb-18 12:06 40.717970 -99.672460 298 4584ft 115kts
04-Feb-18 12:07 40.733360 -99.709943 302 4601ft 116kts
04-Feb-18 12:08 40.747338 -99.748383 297 4634ft 117kts
04-Feb-18 12:09 40.760226 -99.787717 298 4667ft 116kts
04-Feb-18 12:10 40.774680 -99.825874 302 4670ft 113kts
04-Feb-18 12:11 40.790883 -99.861389 306 4596ft 113kts
04-Feb-18 12:12 40.809128 -99.895385 310 4526ft 113kts
04-Feb-18 12:13 40.828520 -99.927943 308 4551ft 113kts
04-Feb-18 12:14 40.844197 -99.964450 298 4568ft 115kts
04-Feb-18 12:15 40.856139 -100.003759 297 4582ft 115kts
04-Feb-18 12:16 40.871421 -100.040431 310 4595ft 113kts
04-Feb-18 12:17 40.888870 -100.074878 304 4604ft 114kts
04-Feb-18 12:18 40.902796 -100.112759 299 4617ft 115kts
04-Feb-18 12:19 40.916012 -100.151392 299 4626ft 115kts
04-Feb-18 12:20 40.933326 -100.186149 316 4624ft 113kts
04-Feb-18 12:21 40.951656 -100.222250 303 4532ft 121kts
04-Feb-18 12:22 40.968930 -100.260456 304 4500ft 120kts
04-Feb-18 12:23 40.987572 -100.297693 304 4453ft 121kts
04-Feb-18 12:24 41.004633 -100.335594 304 4494ft 117kts
04-Feb-18 12:25 41.021962 -100.372149 301 4532ft 117kts
04-Feb-18 12:26 41.036286 -100.411263 296 4566ft 118kts
04-Feb-18 12:27 41.047876 -100.452264 291 4596ft 119kts
04-Feb-18 12:28 41.058958 -100.493556 298 4625ft 118kts
04-Feb-18 12:29 41.070766 -100.532133 293 4436ft 93kts
04-Feb-18 12:30 41.078345 -100.561316 294 3988ft 82kts
04-Feb-18 12:31 41.087774 -100.588639 300 3792ft 80kts
04-Feb-18 12:32 41.088311 -100.615288 237 3891ft 94kts
04-Feb-18 12:33 41.081245 -100.644893 264 4142ft 84kts
04-Feb-18 12:34 41.077777 -100.678814 294 4055ft 94kts
04-Feb-18 12:35 41.100218 -100.692389 327 3648ft 112kts
04-Feb-18 12:36 41.121814 -100.693136 353 2789ft 52kts
04-Feb-18 12:37 41.124937 -100.694131 339 2780ft 3kts
04-Feb-18 12:38 41.126280 -100.694105 356 2780ft 10kts
04-Feb-18 12:39 41.127050 -100.694103 2 2780ft 9kts
04-Feb-18 12:40 41.129346 -100.694036 355 2780ft 7kts
04-Feb-18 12:41 41.131089 -100.694154 295 2780ft 4kts
04-Feb-18 12:42 41.131684 -100.695541 0 2780ft 5kts
04-Feb-18 12:43 41.132017 -100.695733 267 2780ft 0kts
04-Feb-18 12:44 41.132017 -100.695733 267 2780ft 0kts
04-Feb-18 12:45 41.132017 -100.695733 267 2780ft 0kts
04-Feb-18 12:46 41.132017 -100.695733 267 2780ft 0kts
04-Feb-18 12:47 41.132017 -100.695733 267 2780ft 0kts

Navigation Log

Ident Type
Flight plan parsing failed, navigation log unavailable